sensor_id;sensor_type;location;lat;lon;timestamp;pressure;altitude;pressure_sealevel;temperature;humidity
72896;BME280;61036;53.224;6.554;2023-04-24T00:01:40;99684.91;;;16.28;100.00
72896;BME280;61036;53.224;6.554;2023-04-24T00:04:06;99680.91;;;15.85;100.00
72896;BME280;61036;53.224;6.554;2023-04-24T00:06:32;99677.63;;;16.20;100.00
72896;BME280;61036;53.224;6.554;2023-04-24T00:09:00;99671.38;;;16.43;100.00
72896;BME280;61036;53.224;6.554;2023-04-24T00:11:26;99673.97;;;16.36;100.00
72896;BME280;61036;53.224;6.554;2023-04-24T00:13:52;99670.47;;;15.96;100.00
72896;BME280;61036;53.224;6.554;2023-04-24T00:16:17;99664.06;;;15.89;100.00
72896;BME280;61036;53.224;6.554;2023-04-24T00:18:43;99667.75;;;16.28;100.00
72896;BME280;61036;53.224;6.554;2023-04-24T00:21:10;99664.53;;;16.47;100.00
72896;BME280;61036;53.224;6.554;2023-04-24T00:23:36;99659.09;;;16.70;100.00
72896;BME280;61036;53.224;6.554;2023-04-24T00:26:02;99655.72;;;16.22;100.00
72896;BME280;61036;53.224;6.554;2023-04-24T00:28:27;99650.00;;;16.09;100.00
72896;BME280;61036;53.224;6.554;2023-04-24T00:30:53;99650.63;;;15.88;100.00
72896;BME280;61036;53.224;6.554;2023-04-24T00:33:19;99642.25;;;15.58;100.00
72896;BME280;61036;53.224;6.554;2023-04-24T00:35:45;99650.28;;;15.43;100.00
72896;BME280;61036;53.224;6.554;2023-04-24T00:38:11;99646.69;;;15.59;100.00
72896;BME280;61036;53.224;6.554;2023-04-24T00:40:36;99637.69;;;15.19;100.00
72896;BME280;61036;53.224;6.554;2023-04-24T00:43:02;99635.34;;;15.47;100.00
72896;BME280;61036;53.224;6.554;2023-04-24T00:45:28;99639.03;;;15.07;100.00
72896;BME280;61036;53.224;6.554;2023-04-24T00:47:53;99638.06;;;15.55;100.00
72896;BME280;61036;53.224;6.554;2023-04-24T00:50:21;99639.25;;;15.53;100.00
72896;BME280;61036;53.224;6.554;2023-04-24T00:52:46;99641.34;;;15.35;100.00
72896;BME280;61036;53.224;6.554;2023-04-24T00:55:12;99646.03;;;15.01;100.00
72896;BME280;61036;53.224;6.554;2023-04-24T00:57:38;99648.06;;;14.99;100.00
72896;BME280;61036;53.224;6.554;2023-04-24T01:00:05;99634.88;;;15.44;100.00
72896;BME280;61036;53.224;6.554;2023-04-24T01:02:31;99641.75;;;15.54;100.00
72896;BME280;61036;53.224;6.554;2023-04-24T01:05:00;99635.25;;;15.80;100.00
72896;BME280;61036;53.224;6.554;2023-04-24T01:07:27;99643.16;;;15.50;100.00
72896;BME280;61036;53.224;6.554;2023-04-24T01:09:52;99649.75;;;15.00;100.00
72896;BME280;61036;53.224;6.554;2023-04-24T01:12:19;99655.66;;;15.20;100.00
72896;BME280;61036;53.224;6.554;2023-04-24T01:14:45;99654.47;;;15.23;100.00
72896;BME280;61036;53.224;6.554;2023-04-24T01:17:11;99651.34;;;15.34;100.00
72896;BME280;61036;53.224;6.554;2023-04-24T01:19:37;99644.38;;;14.84;100.00
72896;BME280;61036;53.224;6.554;2023-04-24T01:22:08;99649.91;;;15.54;100.00
72896;BME280;61036;53.224;6.554;2023-04-24T01:24:36;99644.78;;;15.28;100.00
72896;BME280;61036;53.224;6.554;2023-04-24T01:27:01;99639.41;;;15.51;100.00
72896;BME280;61036;53.224;6.554;2023-04-24T01:29:27;99638.75;;;14.94;100.00
72896;BME280;61036;53.224;6.554;2023-04-24T01:31:53;99644.47;;;15.63;100.00
72896;BME280;61036;53.224;6.554;2023-04-24T01:34:20;99650.63;;;14.76;100.00
72896;BME280;61036;53.224;6.554;2023-04-24T01:36:45;99647.38;;;15.05;100.00
72896;BME280;61036;53.224;6.554;2023-04-24T01:39:12;99651.91;;;15.21;100.00
72896;BME280;61036;53.224;6.554;2023-04-24T01:41:37;99648.22;;;14.98;100.00
72896;BME280;61036;53.224;6.554;2023-04-24T01:44:03;99646.56;;;14.56;100.00
72896;BME280;61036;53.224;6.554;2023-04-24T01:46:29;99644.50;;;14.82;100.00
72896;BME280;61036;53.224;6.554;2023-04-24T01:48:56;99645.44;;;15.30;100.00
72896;BME280;61036;53.224;6.554;2023-04-24T01:51:23;99641.25;;;15.03;100.00
72896;BME280;61036;53.224;6.554;2023-04-24T01:53:49;99641.75;;;15.15;100.00
72896;BME280;61036;53.224;6.554;2023-04-24T01:56:14;99637.84;;;15.09;100.00
72896;BME280;61036;53.224;6.554;2023-04-24T01:58:40;99635.72;;;14.80;100.00
72896;BME280;61036;53.224;6.554;2023-04-24T02:01:06;99630.94;;;14.50;100.00
72896;BME280;61036;53.224;6.554;2023-04-24T02:03:32;99637.50;;;13.82;100.00
72896;BME280;61036;53.224;6.554;2023-04-24T02:05:57;99633.50;;;14.27;100.00
72896;BME280;61036;53.224;6.554;2023-04-24T02:08:23;99639.94;;;14.34;100.00
72896;BME280;61036;53.224;6.554;2023-04-24T02:10:49;99636.75;;;14.63;100.00
72896;BME280;61036;53.224;6.554;2023-04-24T02:13:14;99638.91;;;14.43;100.00
72896;BME280;61036;53.224;6.554;2023-04-24T02:15:40;99633.69;;;14.58;100.00
72896;BME280;61036;53.224;6.554;2023-04-24T02:18:05;99635.53;;;14.74;100.00
72896;BME280;61036;53.224;6.554;2023-04-24T02:20:32;99637.91;;;14.11;100.00
72896;BME280;61036;53.224;6.554;2023-04-24T02:22:59;99640.66;;;14.69;100.00
72896;BME280;61036;53.224;6.554;2023-04-24T02:25:24;99636.56;;;14.48;100.00
72896;BME280;61036;53.224;6.554;2023-04-24T02:27:52;99641.94;;;14.15;100.00
72896;BME280;61036;53.224;6.554;2023-04-24T02:30:18;99645.34;;;14.09;100.00
72896;BME280;61036;53.224;6.554;2023-04-24T02:32:44;99640.16;;;14.57;100.00
72896;BME280;61036;53.224;6.554;2023-04-24T02:35:10;99636.72;;;14.38;100.00
72896;BME280;61036;53.224;6.554;2023-04-24T02:37:36;99640.66;;;14.60;100.00
72896;BME280;61036;53.224;6.554;2023-04-24T02:40:01;99629.59;;;14.70;100.00
72896;BME280;61036;53.224;6.554;2023-04-24T02:42:27;99631.28;;;14.88;100.00
72896;BME280;61036;53.224;6.554;2023-04-24T02:44:52;99630.47;;;14.62;100.00
72896;BME280;61036;53.224;6.554;2023-04-24T02:47:18;99633.81;;;14.32;100.00
72896;BME280;61036;53.224;6.554;2023-04-24T02:49:45;99630.59;;;14.28;100.00
72896;BME280;61036;53.224;6.554;2023-04-24T02:52:10;99636.06;;;14.69;100.00
72896;BME280;61036;53.224;6.554;2023-04-24T02:54:36;99637.59;;;14.63;100.00
72896;BME280;61036;53.224;6.554;2023-04-24T02:57:01;99640.78;;;14.34;100.00
72896;BME280;61036;53.224;6.554;2023-04-24T02:59:27;99644.38;;;14.68;100.00
72896;BME280;61036;53.224;6.554;2023-04-24T03:01:54;99645.00;;;14.94;100.00
72896;BME280;61036;53.224;6.554;2023-04-24T03:04:20;99635.72;;;15.36;100.00
72896;BME280;61036;53.224;6.554;2023-04-24T03:06:45;99641.03;;;15.21;100.00
72896;BME280;61036;53.224;6.554;2023-04-24T03:09:21;99646.56;;;14.56;100.00
72896;BME280;61036;53.224;6.554;2023-04-24T03:11:47;99652.00;;;14.56;100.00
72896;BME280;61036;53.224;6.554;2023-04-24T03:14:13;99641.97;;;14.48;100.00
72896;BME280;61036;53.224;6.554;2023-04-24T03:16:39;99645.53;;;14.24;100.00
72896;BME280;61036;53.224;6.554;2023-04-24T03:19:05;99646.38;;;14.90;100.00
72896;BME280;61036;53.224;6.554;2023-04-24T03:21:34;99655.75;;;14.63;100.00
72896;BME280;61036;53.224;6.554;2023-04-24T03:24:08;99649.63;;;14.69;100.00
72896;BME280;61036;53.224;6.554;2023-04-24T03:26:35;99649.63;;;14.69;100.00
72896;BME280;61036;53.224;6.554;2023-04-24T03:29:14;99650.28;;;14.79;100.00
72896;BME280;61036;53.224;6.554;2023-04-24T03:31:40;99652.66;;;14.82;100.00
72896;BME280;61036;53.224;6.554;2023-04-24T03:34:05;99656.94;;;14.69;100.00
72896;BME280;61036;53.224;6.554;2023-04-24T03:36:31;99661.28;;;14.37;100.00
72896;BME280;61036;53.224;6.554;2023-04-24T03:38:57;99647.72;;;15.02;100.00
72896;BME280;61036;53.224;6.554;2023-04-24T03:41:26;99653.00;;;14.79;100.00
72896;BME280;61036;53.224;6.554;2023-04-24T03:43:55;99655.53;;;14.97;100.00
72896;BME280;61036;53.224;6.554;2023-04-24T03:46:21;99663.53;;;14.74;100.00
72896;BME280;61036;53.224;6.554;2023-04-24T03:48:52;99659.34;;;15.27;100.00
72896;BME280;61036;53.224;6.554;2023-04-24T03:51:21;99654.38;;;14.67;100.00
72896;BME280;61036;53.224;6.554;2023-04-24T03:53:50;99655.75;;;14.55;100.00
72896;BME280;61036;53.224;6.554;2023-04-24T03:56:18;99658.78;;;14.93;100.00
72896;BME280;61036;53.224;6.554;2023-04-24T03:58:43;99663.19;;;14.77;100.00
72896;BME280;61036;53.224;6.554;2023-04-24T04:01:10;99662.84;;;14.48;100.00
72896;BME280;61036;53.224;6.554;2023-04-24T04:03:50;99655.06;;;14.77;100.00
72896;BME280;61036;53.224;6.554;2023-04-24T04:06:19;99663.34;;;14.76;100.00
72896;BME280;61036;53.224;6.554;2023-04-24T04:08:46;99670.47;;;14.36;100.00
72896;BME280;61036;53.224;6.554;2023-04-24T04:11:12;99664.13;;;14.11;100.00
72896;BME280;61036;53.224;6.554;2023-04-24T04:13:38;99670.28;;;14.46;100.00
72896;BME280;61036;53.224;6.554;2023-04-24T04:16:03;99661.78;;;14.98;100.00
72896;BME280;61036;53.224;6.554;2023-04-24T04:18:29;99664.03;;;14.70;100.00
72896;BME280;61036;53.224;6.554;2023-04-24T04:20:54;99674.88;;;14.86;100.00
72896;BME280;61036;53.224;6.554;2023-04-24T04:23:20;99681.69;;;14.66;100.00
72896;BME280;61036;53.224;6.554;2023-04-24T04:26:08;99683.81;;;14.37;100.00
72896;BME280;61036;53.224;6.554;2023-04-24T04:28:49;99687.44;;;14.71;100.00
72896;BME280;61036;53.224;6.554;2023-04-24T04:31:15;99686.44;;;14.63;100.00
72896;BME280;61036;53.224;6.554;2023-04-24T04:33:41;99689.16;;;14.63;100.00
72896;BME280;61036;53.224;6.554;2023-04-24T04:36:08;99688.88;;;14.16;100.00
72896;BME280;61036;53.224;6.554;2023-04-24T04:38:37;99685.19;;;14.17;100.00
72896;BME280;61036;53.224;6.554;2023-04-24T04:41:13;99695.75;;;14.69;100.00
72896;BME280;61036;53.224;6.554;2023-04-24T04:43:40;99703.19;;;15.00;100.00
72896;BME280;61036;53.224;6.554;2023-04-24T04:46:06;99698.97;;;14.97;100.00
72896;BME280;61036;53.224;6.554;2023-04-24T04:48:49;99705.41;;;14.88;100.00
72896;BME280;61036;53.224;6.554;2023-04-24T04:51:14;99713.81;;;15.34;100.00
72896;BME280;61036;53.224;6.554;2023-04-24T04:53:40;99713.91;;;14.85;100.00
72896;BME280;61036;53.224;6.554;2023-04-24T04:56:06;99722.72;;;14.79;100.00
72896;BME280;61036;53.224;6.554;2023-04-24T04:58:49;99727.31;;;14.78;100.00
72896;BME280;61036;53.224;6.554;2023-04-24T05:01:16;99734.25;;;14.73;100.00
72896;BME280;61036;53.224;6.554;2023-04-24T05:03:45;99730.84;;;14.71;100.00
72896;BME280;61036;53.224;6.554;2023-04-24T05:06:13;99731.72;;;14.79;100.00
72896;BME280;61036;53.224;6.554;2023-04-24T05:08:39;99738.31;;;15.18;100.00
72896;BME280;61036;53.224;6.554;2023-04-24T05:11:08;99736.63;;;15.08;100.00
72896;BME280;61036;53.224;6.554;2023-04-24T05:13:34;99733.72;;;15.26;100.00
72896;BME280;61036;53.224;6.554;2023-04-24T05:16:01;99730.66;;;15.38;100.00
72896;BME280;61036;53.224;6.554;2023-04-24T05:18:27;99737.75;;;15.47;100.00
72896;BME280;61036;53.224;6.554;2023-04-24T05:20:53;99740.50;;;15.30;100.00
72896;BME280;61036;53.224;6.554;2023-04-24T05:23:19;99740.97;;;15.59;100.00
72896;BME280;61036;53.224;6.554;2023-04-24T05:25:49;99746.69;;;15.80;100.00
72896;BME280;61036;53.224;6.554;2023-04-24T05:28:14;99750.53;;;14.97;100.00
72896;BME280;61036;53.224;6.554;2023-04-24T05:30:41;99755.63;;;15.00;100.00
72896;BME280;61036;53.224;6.554;2023-04-24T05:33:06;99753.38;;;15.53;100.00
72896;BME280;61036;53.224;6.554;2023-04-24T05:35:34;99763.25;;;15.21;100.00
72896;BME280;61036;53.224;6.554;2023-04-24T05:38:00;99764.78;;;14.91;100.00
72896;BME280;61036;53.224;6.554;2023-04-24T05:40:26;99772.75;;;14.76;100.00
72896;BME280;61036;53.224;6.554;2023-04-24T05:42:51;99775.31;;;14.86;100.00
72896;BME280;61036;53.224;6.554;2023-04-24T05:45:17;99784.97;;;15.13;100.00
72896;BME280;61036;53.224;6.554;2023-04-24T05:47:43;99786.34;;;15.25;100.00
72896;BME280;61036;53.224;6.554;2023-04-24T05:50:10;99790.41;;;15.21;100.00
72896;BME280;61036;53.224;6.554;2023-04-24T05:52:36;99790.72;;;14.61;100.00
72896;BME280;61036;53.224;6.554;2023-04-24T05:55:05;99797.63;;;14.47;100.00
72896;BME280;61036;53.224;6.554;2023-04-24T05:57:32;99795.13;;;14.62;100.00
72896;BME280;61036;53.224;6.554;2023-04-24T06:00:02;99798.72;;;14.87;100.00
72896;BME280;61036;53.224;6.554;2023-04-24T06:02:39;99804.94;;;14.55;100.00
72896;BME280;61036;53.224;6.554;2023-04-24T06:05:06;99810.63;;;15.02;100.00
72896;BME280;61036;53.224;6.554;2023-04-24T06:07:31;99813.78;;;14.65;100.00
72896;BME280;61036;53.224;6.554;2023-04-24T06:10:00;99815.09;;;14.10;100.00
72896;BME280;61036;53.224;6.554;2023-04-24T06:12:26;99813.69;;;14.40;100.00
72896;BME280;61036;53.224;6.554;2023-04-24T06:15:00;99815.31;;;14.59;100.00
72896;BME280;61036;53.224;6.554;2023-04-24T06:17:41;99818.19;;;14.58;100.00
72896;BME280;61036;53.224;6.554;2023-04-24T06:20:07;99822.34;;;14.36;100.00
72896;BME280;61036;53.224;6.554;2023-04-24T06:22:33;99827.34;;;14.23;100.00
72896;BME280;61036;53.224;6.554;2023-04-24T06:24:59;99835.84;;;14.70;100.00
72896;BME280;61036;53.224;6.554;2023-04-24T06:27:25;99834.72;;;14.47;100.00
72896;BME280;61036;53.224;6.554;2023-04-24T06:29:51;99829.56;;;14.70;100.00
72896;BME280;61036;53.224;6.554;2023-04-24T06:32:23;99836.56;;;15.13;100.00
72896;BME280;61036;53.224;6.554;2023-04-24T06:34:50;99841.06;;;14.55;100.00
72896;BME280;61036;53.224;6.554;2023-04-24T06:37:16;99846.69;;;14.70;100.00
72896;BME280;61036;53.224;6.554;2023-04-24T06:39:41;99852.22;;;14.10;100.00
72896;BME280;61036;53.224;6.554;2023-04-24T06:42:07;99844.69;;;14.72;100.00
72896;BME280;61036;53.224;6.554;2023-04-24T06:44:35;99849.31;;;14.96;100.00
72896;BME280;61036;53.224;6.554;2023-04-24T06:47:09;99860.09;;;14.63;100.00
72896;BME280;61036;53.224;6.554;2023-04-24T06:49:36;99854.34;;;14.75;100.00
72896;BME280;61036;53.224;6.554;2023-04-24T06:52:02;99860.63;;;14.75;100.00
72896;BME280;61036;53.224;6.554;2023-04-24T06:54:28;99866.41;;;14.80;100.00
72896;BME280;61036;53.224;6.554;2023-04-24T06:56:54;99871.53;;;14.41;100.00
72896;BME280;61036;53.224;6.554;2023-04-24T06:59:20;99864.66;;;14.63;100.00
72896;BME280;61036;53.224;6.554;2023-04-24T07:01:46;99875.88;;;14.68;100.00
72896;BME280;61036;53.224;6.554;2023-04-24T07:04:11;99873.19;;;14.84;100.00
72896;BME280;61036;53.224;6.554;2023-04-24T07:06:38;99884.88;;;14.69;100.00
72896;BME280;61036;53.224;6.554;2023-04-24T07:09:04;99886.97;;;14.49;100.00
72896;BME280;61036;53.224;6.554;2023-04-24T07:11:30;99885.19;;;14.31;100.00
72896;BME280;61036;53.224;6.554;2023-04-24T07:13:56;99885.59;;;14.45;100.00
72896;BME280;61036;53.224;6.554;2023-04-24T07:16:21;99886.25;;;14.47;100.00
72896;BME280;61036;53.224;6.554;2023-04-24T07:18:47;99888.31;;;14.87;100.00
72896;BME280;61036;53.224;6.554;2023-04-24T07:21:12;99894.47;;;14.55;100.00
72896;BME280;61036;53.224;6.554;2023-04-24T07:23:38;99895.69;;;14.60;100.00
72896;BME280;61036;53.224;6.554;2023-04-24T07:26:04;99904.41;;;14.80;100.00
72896;BME280;61036;53.224;6.554;2023-04-24T07:28:29;99909.25;;;14.60;100.00
72896;BME280;61036;53.224;6.554;2023-04-24T07:30:57;99906.81;;;14.15;100.00
72896;BME280;61036;53.224;6.554;2023-04-24T07:33:22;99909.59;;;14.57;100.00
72896;BME280;61036;53.224;6.554;2023-04-24T07:35:48;99913.31;;;14.56;100.00
72896;BME280;61036;53.224;6.554;2023-04-24T07:38:13;99918.03;;;14.20;100.00
72896;BME280;61036;53.224;6.554;2023-04-24T07:40:39;99919.47;;;14.06;100.00
72896;BME280;61036;53.224;6.554;2023-04-24T07:43:05;99929.53;;;14.14;100.00
72896;BME280;61036;53.224;6.554;2023-04-24T07:45:31;99936.72;;;14.31;100.00
72896;BME280;61036;53.224;6.554;2023-04-24T07:47:58;99941.69;;;14.10;100.00
72896;BME280;61036;53.224;6.554;2023-04-24T07:50:23;99944.78;;;14.15;100.00
72896;BME280;61036;53.224;6.554;2023-04-24T07:52:49;99941.66;;;14.36;100.00
72896;BME280;61036;53.224;6.554;2023-04-24T07:55:14;99952.84;;;14.07;100.00
72896;BME280;61036;53.224;6.554;2023-04-24T07:57:40;99954.13;;;13.94;100.00
72896;BME280;61036;53.224;6.554;2023-04-24T08:00:06;99954.81;;;13.97;100.00
72896;BME280;61036;53.224;6.554;2023-04-24T08:02:36;99959.16;;;13.89;100.00
72896;BME280;61036;53.224;6.554;2023-04-24T08:05:03;99966.16;;;13.56;100.00
72896;BME280;61036;53.224;6.554;2023-04-24T08:07:29;99972.50;;;13.29;100.00
72896;BME280;61036;53.224;6.554;2023-04-24T08:09:54;99976.31;;;13.72;100.00
72896;BME280;61036;53.224;6.554;2023-04-24T08:12:20;99975.91;;;13.85;100.00
72896;BME280;61036;53.224;6.554;2023-04-24T08:14:45;99991.34;;;13.92;100.00
72896;BME280;61036;53.224;6.554;2023-04-24T08:17:33;99996.03;;;14.26;100.00
72896;BME280;61036;53.224;6.554;2023-04-24T08:19:59;100002.84;;;13.50;100.00
72896;BME280;61036;53.224;6.554;2023-04-24T08:22:29;100003.09;;;14.19;100.00
72896;BME280;61036;53.224;6.554;2023-04-24T08:24:55;100008.84;;;13.98;100.00
72896;BME280;61036;53.224;6.554;2023-04-24T08:27:23;100005.63;;;14.73;100.00
72896;BME280;61036;53.224;6.554;2023-04-24T08:29:49;100012.09;;;14.80;100.00
72896;BME280;61036;53.224;6.554;2023-04-24T08:32:14;100022.09;;;14.45;100.00
72896;BME280;61036;53.224;6.554;2023-04-24T08:34:40;100023.22;;;13.90;100.00
72896;BME280;61036;53.224;6.554;2023-04-24T08:37:05;100025.34;;;14.05;100.00
72896;BME280;61036;53.224;6.554;2023-04-24T08:39:31;100033.94;;;14.44;100.00
72896;BME280;61036;53.224;6.554;2023-04-24T08:41:57;100043.66;;;14.29;100.00
72896;BME280;61036;53.224;6.554;2023-04-24T08:44:34;100042.00;;;14.10;100.00
72896;BME280;61036;53.224;6.554;2023-04-24T08:47:04;100047.03;;;13.87;100.00
72896;BME280;61036;53.224;6.554;2023-04-24T08:49:30;100052.84;;;13.74;100.00
72896;BME280;61036;53.224;6.554;2023-04-24T08:51:56;100053.69;;;13.39;100.00
72896;BME280;61036;53.224;6.554;2023-04-24T08:54:22;100064.84;;;13.89;100.00
72896;BME280;61036;53.224;6.554;2023-04-24T08:56:48;100064.25;;;13.32;100.00
72896;BME280;61036;53.224;6.554;2023-04-24T08:59:15;100073.81;;;14.08;100.00
72896;BME280;61036;53.224;6.554;2023-04-24T09:01:41;100076.41;;;13.91;100.00
72896;BME280;61036;53.224;6.554;2023-04-24T09:04:09;100080.78;;;13.39;100.00
72896;BME280;61036;53.224;6.554;2023-04-24T09:06:39;100084.88;;;13.05;100.00
72896;BME280;61036;53.224;6.554;2023-04-24T09:09:04;100096.38;;;13.27;100.00
72896;BME280;61036;53.224;6.554;2023-04-24T09:11:31;100089.00;;;14.18;100.00
72896;BME280;61036;53.224;6.554;2023-04-24T09:14:01;100089.72;;;14.03;100.00
72896;BME280;61036;53.224;6.554;2023-04-24T09:16:26;100092.03;;;13.62;100.00
72896;BME280;61036;53.224;6.554;2023-04-24T09:18:53;100103.72;;;13.80;100.00
72896;BME280;61036;53.224;6.554;2023-04-24T09:21:21;100100.75;;;14.63;100.00
72896;BME280;61036;53.224;6.554;2023-04-24T11:21:27;100267.13;;;14.18;100.00
72896;BME280;61036;53.224;6.554;2023-04-24T11:23:57;100274.44;;;14.08;100.00
72896;BME280;61036;53.224;6.554;2023-04-24T11:26:22;100276.16;;;14.36;100.00
72896;BME280;61036;53.224;6.554;2023-04-24T11:29:06;100268.34;;;14.87;100.00
72896;BME280;61036;53.224;6.554;2023-04-24T11:31:44;100267.81;;;14.83;100.00
72896;BME280;61036;53.224;6.554;2023-04-24T11:34:15;100279.81;;;14.00;100.00
72896;BME280;61036;53.224;6.554;2023-04-24T11:36:45;100290.34;;;14.03;100.00
72896;BME280;61036;53.224;6.554;2023-04-24T11:39:12;100287.28;;;13.88;100.00
72896;BME280;61036;53.224;6.554;2023-04-24T11:41:38;100291.97;;;13.86;100.00
72896;BME280;61036;53.224;6.554;2023-04-24T11:44:06;100285.19;;;14.73;100.00
72896;BME280;61036;53.224;6.554;2023-04-24T11:46:32;100295.34;;;14.25;100.00
72896;BME280;61036;53.224;6.554;2023-04-24T11:48:59;100294.47;;;14.88;100.00
72896;BME280;61036;53.224;6.554;2023-04-24T11:51:26;100289.84;;;14.35;100.00
72896;BME280;61036;53.224;6.554;2023-04-24T11:53:56;100299.91;;;14.52;100.00
72896;BME280;61036;53.224;6.554;2023-04-24T11:56:23;100303.19;;;14.01;100.00
72896;BME280;61036;53.224;6.554;2023-04-24T11:58:48;100304.38;;;14.16;100.00
72896;BME280;61036;53.224;6.554;2023-04-24T12:01:14;100308.22;;;14.23;100.00
72896;BME280;61036;53.224;6.554;2023-04-24T12:03:40;100306.38;;;14.41;100.00
72896;BME280;61036;53.224;6.554;2023-04-24T12:06:10;100326.63;;;13.92;100.00
72896;BME280;61036;53.224;6.554;2023-04-24T12:08:37;100325.41;;;13.77;100.00
72896;BME280;61036;53.224;6.554;2023-04-24T12:11:05;100329.84;;;13.68;100.00
72896;BME280;61036;53.224;6.554;2023-04-24T12:13:34;100329.28;;;14.02;100.00
72896;BME280;61036;53.224;6.554;2023-04-24T12:16:04;100339.69;;;14.34;100.00
72896;BME280;61036;53.224;6.554;2023-04-24T12:18:30;100335.66;;;13.83;100.00
72896;BME280;61036;53.224;6.554;2023-04-24T12:21:20;100337.47;;;14.75;100.00
72896;BME280;61036;53.224;6.554;2023-04-24T12:23:47;100337.34;;;15.20;100.00
72896;BME280;61036;53.224;6.554;2023-04-24T12:26:19;100340.78;;;15.04;100.00
72896;BME280;61036;53.224;6.554;2023-04-24T12:28:47;100340.16;;;15.28;100.00
72896;BME280;61036;53.224;6.554;2023-04-24T12:31:14;100354.19;;;14.43;100.00
72896;BME280;61036;53.224;6.554;2023-04-24T12:33:40;100349.38;;;14.36;100.00
72896;BME280;61036;53.224;6.554;2023-04-24T12:36:06;100346.81;;;15.60;100.00
72896;BME280;61036;53.224;6.554;2023-04-24T12:38:32;100349.94;;;14.85;100.00
72896;BME280;61036;53.224;6.554;2023-04-24T12:41:07;100363.72;;;14.56;100.00
72896;BME280;61036;53.224;6.554;2023-04-24T12:43:33;100353.97;;;14.99;100.00
72896;BME280;61036;53.224;6.554;2023-04-24T12:45:59;100369.53;;;14.34;100.00
72896;BME280;61036;53.224;6.554;2023-04-24T12:48:26;100362.75;;;15.11;100.00
72896;BME280;61036;53.224;6.554;2023-04-24T12:50:51;100363.25;;;14.61;100.00
72896;BME280;61036;53.224;6.554;2023-04-24T12:53:17;100355.44;;;14.94;100.00
72896;BME280;61036;53.224;6.554;2023-04-24T12:55:43;100364.53;;;14.02;100.00
72896;BME280;61036;53.224;6.554;2023-04-24T12:58:09;100364.38;;;13.66;100.00
72896;BME280;61036;53.224;6.554;2023-04-24T13:00:35;100372.59;;;13.74;100.00
72896;BME280;61036;53.224;6.554;2023-04-24T13:03:01;100374.63;;;13.62;100.00
72896;BME280;61036;53.224;6.554;2023-04-24T13:05:27;100378.00;;;13.84;100.00
72896;BME280;61036;53.224;6.554;2023-04-24T13:07:52;100376.69;;;13.98;100.00
72896;BME280;61036;53.224;6.554;2023-04-24T13:10:18;100378.03;;;13.74;100.00
72896;BME280;61036;53.224;6.554;2023-04-24T13:12:44;100379.31;;;14.17;100.00
72896;BME280;61036;53.224;6.554;2023-04-24T13:15:11;100382.03;;;13.70;100.00
72896;BME280;61036;53.224;6.554;2023-04-24T13:17:37;100384.66;;;13.52;100.00
72896;BME280;61036;53.224;6.554;2023-04-24T13:20:03;100389.06;;;13.63;100.00
72896;BME280;61036;53.224;6.554;2023-04-24T13:22:28;100390.75;;;14.11;100.00
72896;BME280;61036;53.224;6.554;2023-04-24T13:24:54;100390.22;;;13.98;100.00
72896;BME280;61036;53.224;6.554;2023-04-24T13:27:20;100390.78;;;14.01;100.00
72896;BME280;61036;53.224;6.554;2023-04-24T13:29:45;100393.59;;;13.62;100.00
72896;BME280;61036;53.224;6.554;2023-04-24T13:32:11;100394.66;;;14.36;100.00
72896;BME280;61036;53.224;6.554;2023-04-24T13:34:37;100396.88;;;14.40;100.00
72896;BME280;61036;53.224;6.554;2023-04-24T13:37:03;100399.72;;;14.21;100.00
72896;BME280;61036;53.224;6.554;2023-04-24T13:39:29;100403.28;;;13.84;100.00
72896;BME280;61036;53.224;6.554;2023-04-24T13:41:55;100405.00;;;14.13;100.00
72896;BME280;61036;53.224;6.554;2023-04-24T13:44:21;100406.84;;;14.50;100.00
72896;BME280;61036;53.224;6.554;2023-04-24T13:46:49;100397.03;;;14.11;100.00
72896;BME280;61036;53.224;6.554;2023-04-24T13:49:17;100404.53;;;14.27;100.00
72896;BME280;61036;53.224;6.554;2023-04-24T13:51:43;100400.25;;;14.25;100.00
72896;BME280;61036;53.224;6.554;2023-04-24T13:54:09;100410.13;;;13.79;100.00
72896;BME280;61036;53.224;6.554;2023-04-24T13:56:34;100403.13;;;13.76;100.00
72896;BME280;61036;53.224;6.554;2023-04-24T13:59:00;100412.16;;;13.47;100.00
72896;BME280;61036;53.224;6.554;2023-04-24T14:01:26;100410.16;;;13.69;100.00
72896;BME280;61036;53.224;6.554;2023-04-24T14:03:52;100421.22;;;13.85;100.00
72896;BME280;61036;53.224;6.554;2023-04-24T14:06:18;100423.56;;;13.12;100.00
72896;BME280;61036;53.224;6.554;2023-04-24T14:08:44;100427.22;;;12.82;100.00
72896;BME280;61036;53.224;6.554;2023-04-24T14:11:10;100427.22;;;12.92;100.00
72896;BME280;61036;53.224;6.554;2023-04-24T14:13:36;100422.56;;;13.62;100.00
72896;BME280;61036;53.224;6.554;2023-04-24T14:16:03;100425.25;;;13.62;100.00
72896;BME280;61036;53.224;6.554;2023-04-24T14:18:29;100419.72;;;13.24;100.00
72896;BME280;61036;53.224;6.554;2023-04-24T14:20:54;100418.09;;;13.80;100.00
72896;BME280;61036;53.224;6.554;2023-04-24T14:23:20;100420.25;;;13.77;100.00
72896;BME280;61036;53.224;6.554;2023-04-24T14:25:45;100430.97;;;13.10;100.00
72896;BME280;61036;53.224;6.554;2023-04-24T14:28:13;100427.50;;;12.79;100.00
72896;BME280;61036;53.224;6.554;2023-04-24T14:30:39;100419.16;;;13.31;100.00
72896;BME280;61036;53.224;6.554;2023-04-24T14:33:05;100424.41;;;13.61;100.00
72896;BME280;61036;53.224;6.554;2023-04-24T14:35:31;100428.69;;;13.15;100.00
72896;BME280;61036;53.224;6.554;2023-04-24T14:37:58;100429.13;;;13.59;100.00
72896;BME280;61036;53.224;6.554;2023-04-24T14:40:24;100424.56;;;13.69;100.00
72896;BME280;61036;53.224;6.554;2023-04-24T14:42:49;100426.84;;;13.55;100.00